Time;durP1;ratioP1;P1;durP2;ratioP2;P2;SDS_P1;SDS_P2;PMS_P1;PMS_P2;Temp;Humidity;BMP_temperature;BMP_pressure;BME280_temperature;BME280_humidity;BME280_pressure;Samples;Min_cycle;Max_cycle;Signal;HPM_P1;HPM_P2
2024/03/22 00:01:51;;;;;;;9.38;3.83;;;17.90;87.50;;;;;;5034254;28;20036;-47
2024/03/22 00:04:17;;;;;;;6.93;3.83;;;17.80;87.40;;;;;;5034250;28;20487;-47
2024/03/22 00:06:43;;;;;;;6.53;4.10;;;17.80;87.50;;;;;;5034058;28;20029;-46
2024/03/22 00:09:10;;;;;;;8.20;4.13;;;17.70;87.60;;;;;;5034058;28;20416;-47
2024/03/22 00:11:36;;;;;;;8.80;3.20;;;17.60;87.50;;;;;;5034015;28;20022;-45
2024/03/22 00:14:02;;;;;;;8.13;2.95;;;17.60;87.50;;;;;;5033961;28;20026;-47
2024/03/22 00:16:28;;;;;;;4.38;2.72;;;17.60;87.50;;;;;;5034405;28;20021;-45
2024/03/22 00:18:54;;;;;;;3.22;2.70;;;17.50;87.40;;;;;;5033801;28;20105;-47
2024/03/22 00:21:21;;;;;;;5.32;2.75;;;17.50;87.30;;;;;;5033804;28;20034;-47
2024/03/22 00:23:47;;;;;;;6.25;3.05;;;17.50;87.40;;;;;;5033806;28;20033;-47
2024/03/22 00:26:12;;;;;;;7.93;3.00;;;17.50;87.30;;;;;;5033611;28;20036;-46
2024/03/22 00:28:38;;;;;;;8.98;2.85;;;17.40;87.10;;;;;;5033935;28;20104;-47
2024/03/22 00:31:04;;;;;;;4.60;3.05;;;17.40;87.00;;;;;;5033640;28;20037;-47
2024/03/22 00:33:29;;;;;;;5.45;3.67;;;17.30;86.90;;;;;;5033592;28;20034;-47
2024/03/22 00:35:55;;;;;;;4.70;2.88;;;17.30;87.70;;;;;;5033688;28;20027;-47
2024/03/22 00:38:21;;;;;;;5.32;2.70;;;17.30;87.00;;;;;;5033301;28;20022;-47
2024/03/22 00:40:46;;;;;;;5.53;3.25;;;17.30;87.10;;;;;;5033363;28;20150;-47
2024/03/22 00:43:12;;;;;;;3.53;2.97;;;17.30;87.20;;;;;;5033474;28;20048;-44
2024/03/22 00:45:37;;;;;;;7.57;3.05;;;17.30;87.00;;;;;;5033736;28;20037;-45
2024/03/22 00:48:03;;;;;;;6.22;3.08;;;17.30;86.60;;;;;;5033221;28;20025;-44
2024/03/22 00:50:29;;;;;;;4.32;3.00;;;17.30;86.30;;;;;;5033198;28;20057;-42
2024/03/22 00:52:58;;;;;;;6.15;3.30;;;17.20;86.30;;;;;;5032974;28;20508;-45
2024/03/22 00:55:23;;;;;;;4.00;2.58;;;17.20;86.40;;;;;;5033179;28;20488;-45
2024/03/22 00:57:49;;;;;;;3.65;2.50;;;17.10;86.40;;;;;;5032919;28;20061;-45
2024/03/22 01:00:16;;;;;;;5.07;3.17;;;17.10;87.20;;;;;;5033538;28;20026;-43
2024/03/22 01:02:44;;;;;;;4.53;2.65;;;17.10;86.40;;;;;;5032952;28;20025;-45
2024/03/22 01:05:10;;;;;;;5.28;2.83;;;17.10;86.40;;;;;;5033064;28;20104;-44
2024/03/22 01:07:36;;;;;;;4.63;2.95;;;17.00;86.40;;;;;;5032952;28;20160;-45
2024/03/22 01:10:03;;;;;;;5.70;3.00;;;17.00;86.40;;;;;;5032955;28;20055;-45
2024/03/22 01:12:29;;;;;;;4.80;3.30;;;16.90;86.30;;;;;;5032835;28;20082;-45
2024/03/22 01:14:54;;;;;;;4.55;3.13;;;17.00;86.40;;;;;;5032856;28;20025;-45
2024/03/22 01:17:20;;;;;;;5.35;3.13;;;16.90;86.30;;;;;;5032645;28;20029;-45
2024/03/22 01:19:45;;;;;;;6.75;3.40;;;16.90;86.30;;;;;;5032801;28;20080;-42
2024/03/22 01:22:11;;;;;;;6.15;3.25;;;16.90;86.10;;;;;;5032838;28;20035;-44
2024/03/22 01:24:37;;;;;;;7.88;3.30;;;16.80;86.00;;;;;;5032641;28;20029;-44
2024/03/22 01:27:02;;;;;;;6.53;3.00;;;16.80;85.90;;;;;;5032523;28;20431;-43
2024/03/22 01:29:31;;;;;;;5.88;3.63;;;16.80;85.80;;;;;;5032895;28;20097;-44
2024/03/22 01:31:59;;;;;;;4.68;3.15;;;16.80;85.60;;;;;;5032463;28;20064;-44
2024/03/22 01:34:25;;;;;;;3.85;3.10;;;16.70;85.50;;;;;;5032516;28;20400;-44
2024/03/22 01:36:51;;;;;;;4.22;3.00;;;16.70;85.50;;;;;;5032492;28;20022;-44
2024/03/22 01:39:20;;;;;;;3.78;3.08;;;16.70;85.50;;;;;;5032321;28;20452;-44
2024/03/22 01:41:47;;;;;;;3.25;2.58;;;16.60;85.40;;;;;;5032213;28;20017;-46
2024/03/22 01:44:13;;;;;;;5.10;2.85;;;16.60;85.30;;;;;;5031932;28;20030;-45
2024/03/22 01:46:44;;;;;;;6.38;2.88;;;16.60;85.30;;;;;;5032126;28;20085;-43
2024/03/22 01:49:10;;;;;;;5.55;3.20;;;16.60;85.30;;;;;;5032310;28;20022;-44
2024/03/22 01:51:36;;;;;;;5.30;2.92;;;16.60;85.40;;;;;;5032007;28;20063;-45
2024/03/22 01:54:04;;;;;;;6.22;2.95;;;16.60;85.40;;;;;;5030759;28;20025;-43
2024/03/22 01:56:30;;;;;;;4.95;3.38;;;16.50;85.40;;;;;;5031696;28;20828;-44
2024/03/22 01:58:56;;;;;;;5.00;2.90;;;16.50;85.30;;;;;;5032039;28;20153;-43
2024/03/22 02:01:23;;;;;;;4.88;2.88;;;16.50;85.30;;;;;;5031930;28;20049;-43
2024/03/22 02:03:48;;;;;;;5.00;2.83;;;16.40;85.20;;;;;;5031357;28;20625;-43
2024/03/22 02:06:14;;;;;;;4.65;2.80;;;16.40;85.10;;;;;;5031806;28;20037;-44
2024/03/22 02:08:41;;;;;;;4.00;3.00;;;16.40;85.10;;;;;;5031865;28;20025;-44
2024/03/22 02:11:07;;;;;;;4.95;2.90;;;16.30;85.10;;;;;;5031672;28;20029;-44
2024/03/22 02:13:33;;;;;;;7.10;2.78;;;16.30;85.10;;;;;;5031885;28;20030;-45
2024/03/22 02:15:58;;;;;;;4.88;2.90;;;16.30;85.00;;;;;;5030398;28;20094;-43
2024/03/22 02:18:24;;;;;;;4.25;2.70;;;16.30;85.00;;;;;;5031726;28;20032;-44
2024/03/22 02:20:50;;;;;;;4.18;2.85;;;16.30;85.00;;;;;;5031974;28;20021;-44
2024/03/22 02:23:15;;;;;;;8.90;2.92;;;16.20;84.90;;;;;;5031651;28;20392;-44
2024/03/22 02:25:41;;;;;;;4.90;2.70;;;16.20;84.90;;;;;;5031580;28;20075;-45
2024/03/22 02:28:06;;;;;;;4.05;2.80;;;16.20;84.90;;;;;;5031284;28;20025;-44
2024/03/22 02:30:32;;;;;;;5.95;2.70;;;16.20;84.60;;;;;;5031444;28;20029;-44
2024/03/22 02:32:58;;;;;;;3.80;2.80;;;16.20;84.50;;;;;;5031443;28;20034;-44
2024/03/22 02:35:23;;;;;;;3.22;2.72;;;16.20;84.50;;;;;;5031849;28;20037;-47
2024/03/22 02:37:50;;;;;;;6.50;2.83;;;16.10;84.60;;;;;;5031349;28;20068;-45
2024/03/22 02:40:15;;;;;;;6.22;2.90;;;16.10;84.60;;;;;;5031830;28;20025;-45
2024/03/22 02:42:41;;;;;;;4.80;2.97;;;16.10;84.60;;;;;;5031339;28;20030;-45
2024/03/22 02:45:07;;;;;;;3.72;2.50;;;16.10;84.40;;;;;;5031321;28;20025;-45
2024/03/22 02:47:33;;;;;;;7.20;2.90;;;16.10;84.40;;;;;;5029789;28;20061;-44
2024/03/22 02:49:58;;;;;;;4.93;3.05;;;16.00;84.30;;;;;;5031169;28;20068;-45
2024/03/22 02:52:24;;;;;;;4.82;3.03;;;16.00;84.40;;;;;;5031233;28;20033;-45
2024/03/22 02:54:49;;;;;;;5.72;2.60;;;16.00;84.40;;;;;;5031051;28;20124;-45
2024/03/22 02:57:15;;;;;;;5.55;2.97;;;16.00;84.30;;;;;;5030909;28;20040;-44
2024/03/22 02:59:41;;;;;;;3.88;2.67;;;15.90;84.30;;;;;;5031316;28;20029;-44
2024/03/22 03:02:06;;;;;;;4.60;2.63;;;15.90;84.40;;;;;;5031132;28;20108;-45
2024/03/22 03:04:32;;;;;;;4.32;2.72;;;15.90;84.40;;;;;;5031075;28;20021;-45
2024/03/22 03:06:57;;;;;;;5.55;2.70;;;15.90;84.50;;;;;;5029748;28;20021;-44
2024/03/22 03:09:23;;;;;;;6.78;2.70;;;15.90;84.40;;;;;;5030942;28;20030;-44
2024/03/22 03:11:48;;;;;;;4.93;2.50;;;15.90;85.20;;;;;;5030863;28;20116;-45
2024/03/22 03:14:14;;;;;;;4.32;2.47;;;15.90;84.50;;;;;;5031044;28;20021;-46
2024/03/22 03:16:40;;;;;;;4.25;2.40;;;15.90;84.70;;;;;;5035031;28;20017;-44
2024/03/22 03:19:05;;;;;;;5.63;2.80;;;15.80;85.00;;;;;;5035427;28;20546;-44
2024/03/22 03:21:31;;;;;;;3.65;2.47;;;15.80;85.00;;;;;;5034839;28;20104;-45
2024/03/22 03:23:56;;;;;;;4.03;2.83;;;15.90;84.90;;;;;;5034744;28;20018;-45
2024/03/22 03:26:22;;;;;;;3.83;2.63;;;15.90;84.90;;;;;;5034674;28;20527;-45
2024/03/22 03:28:47;;;;;;;4.47;2.83;;;15.80;84.80;;;;;;5034838;28;20084;-45
2024/03/22 03:31:13;;;;;;;3.17;2.65;;;15.80;84.90;;;;;;5034695;28;20445;-45
2024/03/22 03:33:39;;;;;;;8.27;2.50;;;15.80;85.10;;;;;;5034691;28;20100;-45
2024/03/22 03:36:05;;;;;;;3.35;2.60;;;15.70;85.10;;;;;;5034660;28;20022;-44
2024/03/22 03:38:30;;;;;;;4.15;2.85;;;15.70;85.20;;;;;;5034434;28;20104;-44
2024/03/22 03:40:56;;;;;;;9.18;3.13;;;15.80;85.30;;;;;;5034541;28;20096;-44
2024/03/22 03:43:21;;;;;;;2.67;2.35;;;15.70;85.10;;;;;;5034715;28;20036;-45
2024/03/22 03:45:47;;;;;;;5.35;3.10;;;15.70;85.00;;;;;;5034381;28;20076;-47
2024/03/22 03:48:13;;;;;;;4.30;2.38;;;15.70;84.90;;;;;;5032961;28;20033;-44
2024/03/22 03:50:38;;;;;;;3.80;2.47;;;15.70;84.90;;;;;;5034461;28;20029;-45
2024/03/22 03:53:04;;;;;;;3.78;2.55;;;15.70;85.00;;;;;;5034419;28;20029;-45
2024/03/22 03:55:30;;;;;;;4.55;2.85;;;15.70;85.20;;;;;;5034371;28;20500;-44
2024/03/22 03:57:55;;;;;;;3.72;2.80;;;15.70;85.30;;;;;;5034079;28;20026;-46
2024/03/22 04:00:21;;;;;;;4.22;2.58;;;15.60;85.40;;;;;;5034114;28;20122;-45
2024/03/22 04:02:49;;;;;;;5.40;2.38;;;15.60;85.60;;;;;;5034121;28;20037;-45
2024/03/22 04:05:14;;;;;;;5.32;2.50;;;15.70;85.80;;;;;;5034126;28;20503;-45
2024/03/22 04:07:42;;;;;;;4.53;2.38;;;15.60;85.80;;;;;;5033892;28;20033;-44
2024/03/22 04:10:08;;;;;;;4.65;2.50;;;15.60;85.80;;;;;;5065244;28;20075;-46
2024/03/22 04:12:33;;;;;;;5.45;2.40;;;15.60;85.90;;;;;;5034000;28;20030;-46
2024/03/22 04:15:00;;;;;;;3.08;2.22;;;15.60;86.00;;;;;;5034104;28;20033;-44
2024/03/22 04:17:25;;;;;;;3.35;2.30;;;15.60;86.00;;;;;;5033727;28;20057;-45
2024/03/22 04:19:51;;;;;;;4.50;3.17;;;15.60;86.00;;;;;;5033832;28;20500;-44
2024/03/22 04:22:17;;;;;;;4.70;3.10;;;15.60;86.00;;;;;;5033929;28;20021;-44
2024/03/22 04:24:43;;;;;;;5.53;2.55;;;15.60;86.00;;;;;;5033729;28;20029;-44
2024/03/22 04:27:08;;;;;;;3.88;2.47;;;15.60;86.00;;;;;;5032893;28;20033;-45
2024/03/22 04:29:34;;;;;;;3.03;2.40;;;15.60;86.10;;;;;;5033565;28;20025;-46
2024/03/22 04:32:00;;;;;;;4.03;2.53;;;15.60;86.10;;;;;;5033476;28;20029;-45
2024/03/22 04:34:25;;;;;;;4.28;2.10;;;15.60;86.30;;;;;;5032292;28;20017;-44
2024/03/22 04:36:53;;;;;;;5.22;2.75;;;15.60;86.30;;;;;;5033538;28;20397;-45
2024/03/22 04:39:22;;;;;;;5.20;2.60;;;15.60;87.20;;;;;;5033638;28;20029;-45
2024/03/22 04:41:48;;;;;;;4.47;2.40;;;15.60;86.50;;;;;;5033434;28;20060;-44
2024/03/22 04:44:13;;;;;;;5.35;2.95;;;15.60;86.50;;;;;;5033741;28;20431;-45
2024/03/22 04:46:39;;;;;;;5.60;2.88;;;15.60;86.60;;;;;;5033263;28;20108;-45
2024/03/22 04:49:04;;;;;;;7.57;2.53;;;15.60;86.60;;;;;;5033293;28;20033;-46
2024/03/22 04:51:30;;;;;;;3.75;2.50;;;15.60;86.60;;;;;;5033162;28;20393;-44
2024/03/22 04:53:56;;;;;;;3.63;2.40;;;15.60;86.50;;;;;;5033332;28;20073;-45
2024/03/22 04:56:21;;;;;;;4.53;2.60;;;15.60;86.60;;;;;;5033122;28;20032;-44
2024/03/22 04:58:47;;;;;;;5.18;2.65;;;15.60;86.70;;;;;;5033029;28;20105;-45
2024/03/22 05:01:14;;;;;;;5.03;2.78;;;15.60;86.70;;;;;;5031725;28;20380;-44
2024/03/22 05:03:41;;;;;;;6.30;3.08;;;15.60;86.70;;;;;;5033049;28;20030;-44
2024/03/22 05:06:06;;;;;;;3.90;2.40;;;15.60;87.60;;;;;;5033189;28;20501;-44
2024/03/22 05:08:32;;;;;;;4.03;2.40;;;15.60;86.90;;;;;;5032816;28;20541;-45
2024/03/22 05:10:58;;;;;;;4.35;2.53;;;15.60;86.90;;;;;;5032847;28;20388;-44
2024/03/22 05:13:23;;;;;;;3.22;2.20;;;15.60;87.00;;;;;;5032751;28;20061;-45
2024/03/22 05:15:49;;;;;;;3.90;2.70;;;15.60;87.00;;;;;;5032824;28;20022;-45
2024/03/22 05:18:15;;;;;;;2.90;2.25;;;15.70;87.20;;;;;;5032717;28;20083;-44
2024/03/22 05:20:40;;;;;;;5.70;2.80;;;15.70;87.20;;;;;;5032695;28;20018;-44
2024/03/22 05:23:06;;;;;;;3.13;2.60;;;15.60;87.20;;;;;;5032878;28;20030;-44
2024/03/22 05:25:32;;;;;;;3.92;2.67;;;15.70;87.30;;;;;;5032795;28;20029;-45
2024/03/22 05:27:57;;;;;;;2.85;2.40;;;15.70;87.40;;;;;;5032648;28;20021;-45
2024/03/22 05:30:23;;;;;;;4.80;2.80;;;15.70;87.50;;;;;;5031215;28;20087;-45
2024/03/22 05:32:50;;;;;;;3.15;2.47;;;15.70;87.50;;;;;;5032592;28;20057;-44
2024/03/22 05:35:16;;;;;;;3.83;2.67;;;15.70;87.60;;;;;;5033019;28;20030;-44
2024/03/22 05:37:41;;;;;;;3.95;2.88;;;15.60;87.50;;;;;;5031996;28;20053;-45
2024/03/22 05:40:08;;;;;;;4.68;2.80;;;15.60;87.60;;;;;;5032267;28;20064;-45
2024/03/22 05:42:34;;;;;;;4.55;2.70;;;15.60;87.70;;;;;;5032495;28;20049;-45
2024/03/22 05:44:59;;;;;;;3.90;2.50;;;15.60;87.70;;;;;;5032306;28;20060;-44
2024/03/22 05:47:25;;;;;;;4.68;2.75;;;15.60;87.70;;;;;;5032212;28;20487;-45
2024/03/22 05:49:52;;;;;;;5.60;2.42;;;15.60;87.80;;;;;;5032408;28;20032;-45
2024/03/22 05:52:18;;;;;;;4.90;2.38;;;15.60;87.90;;;;;;5032229;28;20053;-44
2024/03/22 05:54:44;;;;;;;3.75;2.20;;;15.60;87.90;;;;;;5032171;28;20068;-44
2024/03/22 05:57:10;;;;;;;3.05;2.53;;;15.60;88.00;;;;;;5031927;28;20037;-45
2024/03/22 05:59:36;;;;;;;3.92;2.50;;;15.60;88.20;;;;;;5032199;28;20049;-44
2024/03/22 06:02:02;;;;;;;4.70;2.53;;;15.60;88.20;;;;;;5032309;28;20037;-45
2024/03/22 06:04:28;;;;;;;4.18;2.45;;;15.60;88.30;;;;;;5030789;28;20385;-45
2024/03/22 06:06:54;;;;;;;4.53;2.50;;;15.60;88.40;;;;;;5031975;28;20068;-45
2024/03/22 06:09:53;;;;;;;6.47;2.50;;;15.60;88.50;;;;;;5031887;28;20037;-44
2024/03/22 06:12:13;;;;;;;3.08;2.30;;;15.60;88.50;;;;;;5030800;28;20045;-45
2024/03/22 06:14:40;;;;;;;4.50;2.45;;;15.60;88.60;;;;;;5030502;28;20441;-46
2024/03/22 06:17:05;;;;;;;4.32;2.40;;;15.60;88.60;;;;;;5031821;28;20022;-44
2024/03/22 06:19:31;;;;;;;3.50;2.38;;;15.60;88.70;;;;;;5031738;28;20546;-44
2024/03/22 06:21:57;;;;;;;3.42;2.53;;;15.60;88.80;;;;;;5031729;28;20112;-45
2024/03/22 06:24:22;;;;;;;6.70;2.50;;;15.60;88.80;;;;;;5031576;28;20076;-45
2024/03/22 06:26:49;;;;;;;3.40;2.10;;;15.60;88.90;;;;;;5031706;28;20108;-45
2024/03/22 06:29:16;;;;;;;4.97;2.40;;;15.60;88.90;;;;;;5031684;28;20029;-45
2024/03/22 06:31:42;;;;;;;5.43;2.30;;;15.60;88.90;;;;;;5031631;28;20057;-45
2024/03/22 06:34:08;;;;;;;6.30;2.40;;;15.60;88.90;;;;;;5031510;28;20052;-47
2024/03/22 06:36:33;;;;;;;3.75;2.28;;;15.60;89.00;;;;;;5031399;28;20039;-46
2024/03/22 06:38:59;;;;;;;3.55;2.25;;;15.60;89.00;;;;;;5031234;28;20021;-46
2024/03/22 06:41:28;;;;;;;3.90;2.33;;;15.60;89.00;;;;;;5031439;28;20025;-44
2024/03/22 06:43:54;;;;;;;3.30;1.95;;;15.60;89.10;;;;;;5031557;28;20026;-44
2024/03/22 06:46:20;;;;;;;4.32;2.72;;;15.70;89.20;;;;;;5031259;28;20078;-45
2024/03/22 06:48:46;;;;;;;4.30;3.20;;;15.60;89.20;;;;;;5031292;28;20032;-45
2024/03/22 06:51:12;;;;;;;4.85;2.70;;;15.70;89.40;;;;;;5031047;28;20033;-45
2024/03/22 06:53:38;;;;;;;5.18;2.80;;;15.70;89.40;;;;;;5031432;28;20037;-46
2024/03/22 06:56:04;;;;;;;5.18;2.45;;;15.70;89.50;;;;;;5029999;28;20473;-46
2024/03/22 06:58:30;;;;;;;6.57;2.75;;;15.70;89.70;;;;;;5031401;28;20040;-45
2024/03/22 07:00:55;;;;;;;6.03;2.50;;;15.70;89.70;;;;;;5031098;28;20021;-45
2024/03/22 07:03:21;;;;;;;3.83;2.72;;;15.80;89.90;;;;;;5031200;28;20029;-45
2024/03/22 07:05:50;;;;;;;3.42;2.70;;;15.80;90.00;;;;;;5029766;28;20033;-45
2024/03/22 07:08:15;;;;;;;3.13;2.40;;;15.80;90.00;;;;;;5030840;28;20022;-45
2024/03/22 07:10:41;;;;;;;3.22;2.47;;;15.80;90.00;;;;;;5030924;28;20105;-45
2024/03/22 07:13:07;;;;;;;9.40;2.58;;;15.90;90.10;;;;;;5030955;28;20477;-45
2024/03/22 07:15:33;;;;;;;5.65;2.53;;;15.90;90.20;;;;;;5030995;28;20026;-44
2024/03/22 07:17:59;;;;;;;3.78;2.22;;;16.00;90.30;;;;;;5030814;28;20033;-44
2024/03/22 07:20:26;;;;;;;4.85;2.50;;;16.00;90.30;;;;;;5030829;28;20025;-44
2024/03/22 07:22:52;;;;;;;4.28;2.38;;;16.10;90.40;;;;;;5030851;28;20061;-44
2024/03/22 07:25:17;;;;;;;3.72;2.65;;;16.10;90.40;;;;;;5030987;28;20056;-44
2024/03/22 07:27:43;;;;;;;6.05;2.70;;;16.20;90.40;;;;;;5030997;28;20034;-43
2024/03/22 07:30:09;;;;;;;6.38;2.50;;;16.20;90.40;;;;;;5030906;28;20025;-44
2024/03/22 07:32:35;;;;;;;5.45;2.53;;;16.30;90.40;;;;;;5030844;28;20064;-44
2024/03/22 07:35:01;;;;;;;3.47;2.22;;;16.40;90.40;;;;;;5030813;28;20025;-44
2024/03/22 07:37:26;;;;;;;5.25;2.83;;;16.40;90.40;;;;;;5030610;28;20566;-44
2024/03/22 07:39:52;;;;;;;3.53;2.60;;;16.50;90.50;;;;;;5030842;28;20528;-44
2024/03/22 07:42:18;;;;;;;4.32;2.88;;;16.60;90.50;;;;;;5030859;28;20037;-44
2024/03/22 07:44:43;;;;;;;4.78;3.20;;;16.60;90.50;;;;;;5030747;28;20436;-44
2024/03/22 07:47:09;;;;;;;6.15;3.13;;;16.70;90.50;;;;;;5029258;28;20291;-44
2024/03/22 07:49:36;;;;;;;5.63;3.35;;;16.80;90.80;;;;;;5030589;28;20029;-44
2024/03/22 07:52:02;;;;;;;3.95;3.20;;;16.90;90.50;;;;;;5030502;28;20435;-44
2024/03/22 07:54:28;;;;;;;5.00;3.55;;;16.90;90.40;;;;;;5030654;28;20022;-44
2024/03/22 07:56:53;;;;;;;3.78;2.75;;;17.00;90.40;;;;;;5030570;28;20030;-44
2024/03/22 07:59:19;;;;;;;5.25;2.70;;;17.10;90.30;;;;;;5030660;28;20025;-44
2024/03/22 08:01:44;;;;;;;6.28;3.00;;;17.20;90.30;;;;;;5031347;28;20032;-44
2024/03/22 08:04:10;;;;;;;6.80;3.15;;;17.30;90.30;;;;;;5034223;28;20029;-44
2024/03/22 08:06:36;;;;;;;4.00;2.60;;;17.40;90.30;;;;;;5033997;28;20103;-44
2024/03/22 08:09:03;;;;;;;6.97;2.72;;;17.40;90.30;;;;;;5034116;28;20030;-44
2024/03/22 08:11:28;;;;;;;4.80;2.50;;;17.50;90.30;;;;;;5034076;28;20022;-44
2024/03/22 08:14:01;;;;;;;4.63;2.60;;;17.60;90.30;;;;;;5033996;28;20385;-44
2024/03/22 08:16:27;;;;;;;6.60;2.72;;;17.70;90.30;;;;;;5033893;28;20426;-44
2024/03/22 08:18:53;;;;;;;3.90;2.45;;;17.70;90.30;;;;;;5033804;28;20293;-44
2024/03/22 08:21:19;;;;;;;4.88;2.70;;;17.80;90.40;;;;;;5033752;28;20021;-44
2024/03/22 08:23:45;;;;;;;4.60;2.70;;;17.90;90.40;;;;;;5033905;28;20505;-44
2024/03/22 08:26:10;;;;;;;5.63;2.63;;;18.00;90.30;;;;;;5033933;28;20060;-44
2024/03/22 08:28:36;;;;;;;5.25;2.47;;;18.10;90.30;;;;;;5033885;28;20029;-44
2024/03/22 08:31:05;;;;;;;3.97;2.78;;;18.20;90.20;;;;;;5033793;28;20110;-44
2024/03/22 08:33:31;;;;;;;5.47;2.55;;;18.30;90.00;;;;;;5033487;28;20029;-44
2024/03/22 08:35:57;;;;;;;4.35;3.08;;;18.40;89.90;;;;;;5033568;28;20096;-44
2024/03/22 08:38:23;;;;;;;2.90;2.13;;;18.50;89.70;;;;;;5033412;28;20028;-44
2024/03/22 08:40:50;;;;;;;6.13;2.50;;;18.60;89.70;;;;;;5033492;28;20018;-44
2024/03/22 08:43:16;;;;;;;4.00;2.90;;;18.70;89.60;;;;;;5033575;28;20040;-44
2024/03/22 08:45:42;;;;;;;5.97;3.05;;;18.70;89.70;;;;;;5033366;28;20032;-44
2024/03/22 08:48:08;;;;;;;5.05;2.78;;;18.80;89.60;;;;;;5033076;28;20485;-44
2024/03/22 08:50:34;;;;;;;4.78;2.65;;;18.90;89.10;;;;;;5033269;28;20056;-43
2024/03/22 08:53:03;;;;;;;3.90;2.80;;;19.10;88.90;;;;;;5033288;28;20029;-45
2024/03/22 08:55:28;;;;;;;4.72;2.63;;;19.20;88.60;;;;;;5033296;28;20022;-44
2024/03/22 08:57:54;;;;;;;5.00;2.38;;;19.30;88.40;;;;;;5032979;28;20048;-44
2024/03/22 09:00:20;;;;;;;5.25;2.50;;;19.40;88.10;;;;;;5033150;28;20033;-45
2024/03/22 09:02:45;;;;;;;3.88;2.45;;;19.50;87.90;;;;;;5033093;28;20491;-45
2024/03/22 09:05:11;;;;;;;3.83;2.17;;;19.70;87.80;;;;;;5033402;28;20033;-45
2024/03/22 09:07:36;;;;;;;3.30;2.15;;;19.70;87.60;;;;;;5032893;28;20052;-43
2024/03/22 09:10:02;;;;;;;3.60;2.10;;;19.80;87.50;;;;;;5032964;28;20506;-44
2024/03/22 09:12:28;;;;;;;4.03;1.92;;;19.80;87.40;;;;;;5032800;28;20033;-45
2024/03/22 09:14:53;;;;;;;3.38;2.03;;;19.90;87.40;;;;;;5032948;28;20097;-43
2024/03/22 09:17:19;;;;;;;3.15;1.70;;;20.00;87.30;;;;;;5032529;28;20024;-43
2024/03/22 09:19:45;;;;;;;3.28;1.88;;;20.10;87.00;;;;;;5032618;28;20021;-43
2024/03/22 09:22:10;;;;;;;1.77;1.67;;;20.30;86.80;;;;;;5032796;28;20026;-43
2024/03/22 09:24:36;;;;;;;1.98;1.42;;;20.30;86.40;;;;;;5032703;28;20026;-43
2024/03/22 09:27:04;;;;;;;3.95;1.70;;;20.40;86.00;;;;;;5032657;28;20100;-43
2024/03/22 09:29:29;;;;;;;4.13;2.03;;;20.50;85.80;;;;;;5032582;28;20041;-47
2024/03/22 09:31:55;;;;;;;6.07;2.30;;;20.60;85.90;;;;;;5032347;28;20030;-44
2024/03/22 09:34:21;;;;;;;4.05;2.38;;;20.70;85.70;;;;;;5032499;28;20044;-44
2024/03/22 09:36:46;;;;;;;4.10;2.28;;;20.80;85.50;;;;;;5032481;28;20091;-45
2024/03/22 09:39:12;;;;;;;3.10;1.80;;;20.90;85.10;;;;;;5032443;28;20026;-44
2024/03/22 09:41:44;;;;;;;4.88;2.30;;;21.00;84.80;;;;;;5032317;28;20389;-45
2024/03/22 09:44:19;;;;;;;5.20;2.05;;;21.20;84.50;;;;;;5032699;28;20030;-44
2024/03/22 09:46:47;;;;;;;3.20;1.70;;;21.20;84.00;;;;;;5030924;28;20072;-44
2024/03/22 09:49:13;;;;;;;2.88;1.58;;;21.30;83.80;;;;;;5032373;28;20112;-44
2024/03/22 09:51:43;;;;;;;3.13;1.73;;;21.40;83.50;;;;;;5032167;28;20087;-44
2024/03/22 09:54:10;;;;;;;2.42;1.58;;;21.60;83.30;;;;;;5032104;28;20503;-44
2024/03/22 09:56:38;;;;;;;2.08;1.50;;;21.60;83.10;;;;;;5031872;28;20038;-44
2024/03/22 09:59:03;;;;;;;2.38;1.63;;;21.70;83.00;;;;;;5031930;28;20057;-44
2024/03/22 10:01:30;;;;;;;6.03;1.80;;;21.80;83.00;;;;;;5031924;28;20103;-44
2024/03/22 10:03:55;;;;;;;3.60;1.33;;;21.90;82.80;;;;;;5032086;28;20175;-45
2024/03/22 10:06:21;;;;;;;3.38;1.70;;;22.00;82.40;;;;;;5032073;28;20489;-45
2024/03/22 10:08:47;;;;;;;2.67;1.65;;;22.10;81.90;;;;;;5031881;28;20551;-45
2024/03/22 10:11:13;;;;;;;3.70;1.63;;;22.20;81.40;;;;;;5031901;28;20112;-45
2024/03/22 10:13:38;;;;;;;3.00;1.63;;;22.30;81.20;;;;;;5031697;28;20108;-44
2024/03/22 10:16:05;;;;;;;4.03;1.58;;;22.40;80.90;;;;;;5031735;28;20025;-45
2024/03/22 10:18:33;;;;;;;2.97;1.30;;;22.40;80.70;;;;;;5031583;28;20508;-44
2024/03/22 10:21:00;;;;;;;2.15;1.10;;;22.50;80.50;;;;;;5031768;28;20079;-45
2024/03/22 10:23:26;;;;;;;2.95;1.45;;;22.50;80.30;;;;;;5031740;28;20029;-44
2024/03/22 10:25:52;;;;;;;2.47;1.23;;;22.60;80.50;;;;;;5031046;28;20021;-44
2024/03/22 10:28:17;;;;;;;2.92;1.35;;;22.60;80.40;;;;;;5030375;28;20473;-44
2024/03/22 10:30:47;;;;;;;2.03;1.10;;;22.70;80.20;;;;;;5030384;28;20072;-44
2024/03/22 10:33:13;;;;;;;1.15;0.90;;;22.80;80.00;;;;;;5031377;28;20029;-44
2024/03/22 10:35:39;;;;;;;3.25;1.08;;;22.80;79.70;;;;;;5031514;28;20045;-44
2024/03/22 10:38:07;;;;;;;2.65;1.10;;;22.80;79.50;;;;;;5031327;28;20033;-44
2024/03/22 10:40:34;;;;;;;2.17;1.08;;;22.90;79.40;;;;;;5031437;28;20022;-47
2024/03/22 10:43:02;;;;;;;2.50;0.98;;;22.90;79.20;;;;;;5031480;28;20052;-45
2024/03/22 10:45:29;;;;;;;2.15;1.00;;;23.00;79.10;;;;;;5031210;28;20503;-45
2024/03/22 10:47:55;;;;;;;2.10;1.20;;;23.00;78.90;;;;;;5031154;28;20049;-48
2024/03/22 10:50:23;;;;;;;1.70;1.02;;;23.00;78.80;;;;;;5031102;28;20493;-45
2024/03/22 10:52:56;;;;;;;1.73;1.00;;;23.10;78.70;;;;;;5031267;28;20022;-45
2024/03/22 10:55:30;;;;;;;1.92;0.93;;;23.10;79.40;;;;;;5031255;28;20029;-45
2024/03/22 10:57:59;;;;;;;1.88;0.90;;;23.10;78.50;;;;;;5031017;28;20038;-45
2024/03/22 11:00:29;;;;;;;2.22;1.00;;;23.20;78.50;;;;;;5031031;28;20030;-44
2024/03/22 11:02:55;;;;;;;2.55;0.98;;;23.20;78.40;;;;;;5031326;28;20033;-46
2024/03/22 11:05:21;;;;;;;1.27;0.80;;;23.20;78.30;;;;;;5031153;28;20734;-46
2024/03/22 11:07:47;;;;;;;1.23;0.90;;;23.20;78.30;;;;;;5031042;28;20087;-46
2024/03/22 11:10:14;;;;;;;1.25;0.82;;;23.20;78.30;;;;;;5031126;28;20048;-45
2024/03/22 11:12:40;;;;;;;1.58;0.82;;;23.30;78.30;;;;;;5031085;28;20055;-45
2024/03/22 11:15:07;;;;;;;1.25;0.90;;;23.30;78.40;;;;;;5031039;28;20025;-45
2024/03/22 11:17:32;;;;;;;2.00;1.00;;;23.30;78.40;;;;;;5030868;28;20060;-46
2024/03/22 11:19:58;;;;;;;1.98;1.00;;;23.30;78.60;;;;;;5030946;28;20052;-46
2024/03/22 11:22:25;;;;;;;2.03;1.00;;;23.50;78.20;;;;;;5030967;28;20425;-45
2024/03/22 11:24:52;;;;;;;1.20;0.90;;;23.70;77.70;;;;;;5030952;28;20036;-44
2024/03/22 11:27:18;;;;;;;1.50;0.95;;;24.00;77.10;;;;;;5030835;28;20034;-45
2024/03/22 11:29:46;;;;;;;1.80;0.98;;;24.30;76.90;;;;;;5030740;28;20036;-45
2024/03/22 11:32:12;;;;;;;1.70;0.90;;;24.30;76.70;;;;;;5030945;28;20053;-44
2024/03/22 11:34:39;;;;;;;1.35;0.90;;;24.40;76.40;;;;;;5030873;28;20036;-45
2024/03/22 11:37:10;;;;;;;2.03;0.90;;;24.50;76.00;;;;;;5032061;28;20025;-45
2024/03/22 11:39:36;;;;;;;1.65;0.80;;;24.70;75.90;;;;;;5034730;28;20113;-46
2024/03/22 11:42:04;;;;;;;1.00;0.70;;;24.70;76.00;;;;;;5034649;28;20025;-46
2024/03/22 11:44:31;;;;;;;1.77;0.85;;;24.60;76.20;;;;;;5034589;28;20667;-44
2024/03/22 11:46:57;;;;;;;0.80;0.52;;;24.50;76.40;;;;;;5034461;28;20030;-44
2024/03/22 11:49:22;;;;;;;2.05;0.90;;;24.40;76.60;;;;;;5034421;28;20028;-45
2024/03/22 11:51:48;;;;;;;1.17;0.70;;;24.30;76.70;;;;;;5034256;28;20067;-45
2024/03/22 11:54:14;;;;;;;1.23;0.73;;;24.20;76.70;;;;;;5034252;28;20125;-45
2024/03/22 11:56:40;;;;;;;2.05;1.10;;;24.20;76.80;;;;;;5034002;28;20030;-45
2024/03/22 11:59:06;;;;;;;1.13;0.73;;;24.30;76.60;;;;;;5034034;28;20022;-45
2024/03/22 12:01:33;;;;;;;1.48;0.77;;;24.40;76.30;;;;;;5034104;28;20033;-45
2024/03/22 12:03:59;;;;;;;1.33;0.85;;;24.40;76.00;;;;;;5034175;28;20029;-46
2024/03/22 12:06:25;;;;;;;1.10;0.90;;;24.50;76.00;;;;;;5033930;28;20033;-45
2024/03/22 12:08:50;;;;;;;1.80;1.00;;;24.50;75.90;;;;;;5032545;28;20116;-45
2024/03/22 12:11:16;;;;;;;1.38;0.68;;;24.50;75.90;;;;;;5033850;28;20060;-45
2024/03/22 12:13:42;;;;;;;1.80;0.90;;;24.50;75.80;;;;;;5033821;28;20109;-45
2024/03/22 12:16:07;;;;;;;1.70;0.70;;;24.50;75.80;;;;;;5033905;28;20100;-44
2024/03/22 12:18:33;;;;;;;2.22;0.80;;;24.50;75.70;;;;;;5033858;28;20029;-44
2024/03/22 12:21:00;;;;;;;1.30;0.90;;;24.50;75.70;;;;;;5034014;28;20041;-44
2024/03/22 12:23:25;;;;;;;1.50;0.80;;;24.50;75.60;;;;;;5033921;28;20120;-44
2024/03/22 12:25:51;;;;;;;1.98;0.77;;;24.50;75.60;;;;;;5033737;28;20135;-44
2024/03/22 12:28:18;;;;;;;1.38;0.70;;;24.50;75.60;;;;;;5033637;28;20055;-44
2024/03/22 12:30:44;;;;;;;1.27;0.80;;;24.50;75.70;;;;;;5033660;28;20029;-44
2024/03/22 12:33:12;;;;;;;1.17;0.70;;;24.50;75.70;;;;;;5033670;28;20030;-44
2024/03/22 12:35:41;;;;;;;1.77;0.85;;;24.50;75.70;;;;;;5033775;28;20033;-45
2024/03/22 12:38:10;;;;;;;1.05;0.70;;;24.50;75.60;;;;;;5033458;28;20029;-46
2024/03/22 12:40:36;;;;;;;1.15;0.70;;;24.50;75.50;;;;;;5033438;28;20021;-45
2024/03/22 12:43:02;;;;;;;1.20;0.73;;;24.60;75.40;;;;;;5033587;28;20034;-45